createdAt,value
2022-10-25T00:00:02.325Z,14.00
2022-10-25T00:05:16.298Z,14.00
2022-10-25T00:10:22.253Z,14.00
2022-10-25T00:15:28.474Z,14.00
2022-10-25T00:20:31.054Z,13.90
2022-10-25T00:25:33.663Z,13.90
2022-10-25T00:30:36.219Z,14.00
2022-10-25T00:35:39.033Z,14.00
2022-10-25T00:40:41.592Z,14.00
2022-10-25T00:45:44.338Z,14.00
2022-10-25T00:50:51.508Z,14.00
2022-10-25T00:56:20.532Z,13.90
2022-10-25T01:01:25.028Z,14.00
2022-10-25T01:06:34.542Z,14.00
2022-10-25T01:11:38.079Z,13.90
2022-10-25T01:17:17.272Z,13.90
2022-10-25T01:22:34.751Z,13.90
2022-10-25T01:33:22.982Z,13.80
2022-10-25T01:38:37.462Z,13.60
2022-10-25T01:43:57.613Z,13.50
2022-10-25T01:49:05.571Z,13.60
2022-10-25T01:54:25.987Z,13.60
2022-10-25T02:00:07.491Z,13.50
2022-10-25T02:05:45.740Z,13.40
2022-10-25T02:11:16.741Z,13.30
2022-10-25T02:16:31.824Z,13.20
2022-10-25T02:21:36.833Z,13.20
2022-10-25T02:26:43.567Z,13.10
2022-10-25T02:31:46.667Z,12.90
2022-10-25T02:36:53.655Z,12.90
2022-10-25T02:41:56.403Z,13.00
2022-10-25T02:46:59.552Z,13.20
2022-10-25T02:52:02.372Z,13.20
2022-10-25T02:57:05.049Z,13.10
2022-10-25T03:02:07.632Z,13.30
2022-10-25T03:07:10.213Z,13.10
2022-10-25T03:12:12.764Z,13.10
2022-10-25T03:17:15.393Z,13.10
2022-10-25T03:22:18.036Z,13.00
2022-10-25T03:27:20.687Z,13.10
2022-10-25T03:32:23.302Z,13.20
2022-10-25T03:37:25.912Z,13.30
2022-10-25T03:42:28.493Z,13.30
2022-10-25T03:47:31.051Z,13.30
2022-10-25T03:52:33.931Z,13.40
2022-10-25T03:57:36.851Z,13.40
2022-10-25T04:02:39.706Z,13.40
2022-10-25T04:07:42.334Z,13.40
2022-10-25T04:12:44.999Z,13.40
2022-10-25T04:17:53.613Z,13.40
2022-10-25T04:22:57.261Z,13.40
2022-10-25T04:28:00.630Z,13.40
2022-10-25T04:33:03.251Z,13.40
2022-10-25T04:38:05.872Z,13.40
2022-10-25T04:43:08.514Z,13.40
2022-10-25T04:48:11.221Z,13.30
2022-10-25T04:53:14.307Z,13.30
2022-10-25T04:58:16.920Z,13.30
2022-10-25T05:03:20.377Z,13.10
2022-10-25T05:08:23.057Z,13.00
2022-10-25T05:13:25.636Z,13.00
2022-10-25T05:18:28.822Z,13.00
2022-10-25T05:23:33.813Z,13.00
2022-10-25T05:28:38.165Z,12.90
2022-10-25T05:33:40.886Z,12.90
2022-10-25T05:38:43.804Z,12.70
2022-10-25T05:43:46.828Z,12.70
2022-10-25T05:48:51.546Z,12.70
2022-10-25T05:53:56.449Z,12.60
2022-10-25T05:59:12.306Z,12.50
2022-10-25T06:04:15.717Z,12.30
2022-10-25T06:09:18.567Z,12.40
2022-10-25T06:14:21.418Z,12.50
2022-10-25T06:19:24.024Z,12.40
2022-10-25T06:24:26.814Z,12.60
2022-10-25T06:29:29.553Z,13.10
2022-10-25T06:34:32.162Z,13.20
2022-10-25T06:39:34.843Z,13.30
2022-10-25T06:44:37.543Z,13.20
2022-10-25T06:49:40.319Z,13.20
2022-10-25T06:54:43.302Z,13.50
2022-10-25T06:59:46.302Z,14.20
2022-10-25T07:04:49.084Z,14.50
2022-10-25T07:09:51.849Z,14.50
2022-10-25T07:14:54.817Z,14.30
2022-10-25T07:19:58.353Z,14.10
2022-10-25T07:25:01.063Z,14.40
2022-10-25T07:30:04.040Z,14.80
2022-10-25T07:35:07.001Z,15.20
2022-10-25T07:40:10.199Z,15.50
2022-10-25T07:45:12.966Z,16.20
2022-10-25T07:50:15.879Z,16.10
2022-10-25T07:55:18.856Z,16.20
2022-10-25T08:00:21.853Z,16.30
2022-10-25T08:05:24.833Z,16.80
2022-10-25T08:10:27.744Z,16.40
2022-10-25T08:15:30.566Z,16.60
2022-10-25T08:21:00.211Z,16.70
2022-10-25T08:25:57.614Z,16.80
2022-10-25T08:31:01.671Z,18.90
2022-10-25T08:36:05.142Z,20.00
2022-10-25T08:41:22.833Z,22.30
2022-10-25T08:46:41.337Z,25.50
2022-10-25T08:51:47.456Z,26.60
2022-10-25T08:57:03.730Z,27.40
2022-10-25T09:02:41.561Z,26.40
2022-10-25T09:08:22.366Z,22.90
2022-10-25T09:13:52.618Z,19.60
2022-10-25T09:18:57.701Z,19.00
2022-10-25T09:24:09.973Z,17.70
2022-10-25T09:29:30.797Z,17.30
2022-10-25T09:34:34.045Z,18.10
2022-10-25T09:39:45.079Z,19.20
2022-10-25T09:45:07.013Z,17.50
2022-10-25T09:50:27.553Z,16.80
2022-10-25T09:55:41.939Z,17.50
2022-10-25T10:00:44.901Z,17.50
2022-10-25T10:05:52.481Z,17.00
2022-10-25T10:10:56.925Z,16.60
2022-10-25T10:16:35.723Z,16.60
2022-10-25T10:21:46.589Z,16.20
2022-10-25T10:26:57.394Z,16.00
2022-10-25T10:32:03.176Z,16.00
2022-10-25T10:37:15.961Z,17.50
2022-10-25T10:42:22.939Z,19.20
2022-10-25T10:47:32.167Z,19.20
2022-10-25T10:52:43.917Z,17.90
2022-10-25T10:57:47.120Z,17.00
2022-10-25T11:02:50.934Z,17.50
2022-10-25T11:08:03.067Z,16.90
2022-10-25T11:13:15.014Z,16.60
2022-10-25T11:18:20.366Z,16.70
2022-10-25T11:23:36.748Z,18.40
2022-10-25T11:29:00.915Z,20.70
2022-10-25T11:34:32.835Z,22.50
2022-10-25T11:39:42.756Z,22.60
2022-10-25T11:45:19.084Z,21.60
2022-10-25T11:50:30.413Z,22.70
2022-10-25T11:55:37.213Z,22.00
2022-10-25T12:01:10.963Z,21.90
2022-10-25T12:06:26.942Z,21.80
2022-10-25T12:11:34.049Z,22.50
2022-10-25T12:16:37.967Z,22.30
2022-10-25T12:22:07.563Z,22.10
2022-10-25T12:27:11.881Z,22.70
2022-10-25T12:32:33.934Z,22.70
2022-10-25T12:37:38.610Z,23.60
2022-10-25T12:42:46.527Z,23.30
2022-10-25T12:48:24.589Z,23.50
2022-10-25T12:53:35.374Z,24.20
2022-10-25T12:58:53.159Z,23.50
2022-10-25T13:04:04.822Z,22.90
2022-10-25T13:09:21.029Z,23.40
2022-10-25T13:14:51.900Z,22.80
2022-10-25T13:20:19.690Z,22.20
2022-10-25T13:25:31.786Z,22.50
2022-10-25T13:30:34.560Z,22.50
2022-10-25T13:35:40.026Z,22.00
2022-10-25T13:40:42.917Z,21.10
2022-10-25T13:45:47.943Z,20.30
2022-10-25T13:51:00.342Z,19.80
2022-10-25T13:56:09.370Z,19.50
2022-10-25T14:01:18.291Z,18.90
2022-10-25T14:06:38.154Z,18.60
2022-10-25T14:12:01.478Z,18.70
2022-10-25T14:17:27.187Z,18.40
2022-10-25T14:22:57.379Z,18.50
2022-10-25T14:28:16.775Z,18.80
2022-10-25T14:33:35.429Z,18.60
2022-10-25T14:39:00.662Z,18.50
2022-10-25T14:44:03.499Z,18.30
2022-10-25T14:49:10.374Z,18.10
2022-10-25T14:54:12.962Z,17.70
2022-10-25T14:59:42.528Z,17.60
2022-10-25T15:04:48.854Z,17.50
2022-10-25T15:09:53.715Z,17.30
2022-10-25T15:14:58.974Z,17.10
2022-10-25T15:20:06.689Z,17.00
2022-10-25T15:25:24.732Z,16.90
2022-10-25T15:30:37.757Z,16.70
2022-10-25T15:35:48.686Z,16.40
2022-10-25T15:40:51.528Z,16.30
2022-10-25T15:45:55.155Z,16.20
2022-10-25T15:50:58.822Z,16.00
2022-10-25T15:56:02.818Z,15.80
2022-10-25T16:01:05.916Z,15.70
2022-10-25T16:06:12.381Z,15.60
2022-10-25T16:11:19.162Z,15.50
2022-10-25T16:16:45.091Z,15.40
2022-10-25T16:21:48.003Z,15.20
2022-10-25T16:26:51.502Z,15.10
2022-10-25T16:31:54.783Z,14.90
2022-10-25T16:36:58.083Z,14.80
2022-10-25T16:42:00.833Z,14.60
2022-10-25T16:47:03.552Z,14.40
2022-10-25T16:52:06.414Z,14.30
2022-10-25T16:57:09.603Z,14.30
2022-10-25T17:02:21.306Z,14.30
2022-10-25T17:07:24.673Z,14.10
2022-10-25T17:12:27.954Z,13.90
2022-10-25T17:17:30.665Z,14.10
2022-10-25T17:22:34.965Z,14.10
2022-10-25T17:27:40.106Z,14.10
2022-10-25T17:32:43.508Z,14.10
2022-10-25T17:37:47.475Z,14.10
2022-10-25T17:42:50.523Z,14.00
2022-10-25T17:47:53.296Z,14.00
2022-10-25T17:52:56.008Z,13.90
2022-10-25T17:57:58.788Z,13.80
2022-10-25T18:03:04.281Z,13.60
2022-10-25T18:08:08.011Z,13.10
2022-10-25T18:13:10.931Z,12.80
2022-10-25T18:18:13.729Z,12.70
2022-10-25T18:23:16.549Z,12.40
2022-10-25T18:28:19.260Z,12.20
2022-10-25T18:33:25.210Z,12.20
2022-10-25T18:38:28.209Z,12.10
2022-10-25T18:43:30.951Z,12.10
2022-10-25T18:48:33.691Z,11.90
2022-10-25T18:53:38.791Z,11.70
2022-10-25T18:58:42.421Z,11.70
2022-10-25T19:03:45.535Z,11.50
2022-10-25T19:08:49.756Z,11.40
2022-10-25T19:13:56.781Z,11.30
2022-10-25T19:19:07.418Z,11.20
2022-10-25T19:24:14.236Z,11.40
2022-10-25T19:29:17.137Z,11.30
2022-10-25T19:34:19.955Z,11.70
2022-10-25T19:39:22.782Z,11.90
2022-10-25T19:44:25.712Z,12.10
2022-10-25T19:49:28.545Z,12.30
2022-10-25T19:54:31.373Z,12.10
2022-10-25T19:59:34.742Z,12.00
2022-10-25T20:04:37.494Z,12.00
2022-10-25T20:09:41.486Z,12.10
2022-10-25T20:14:44.244Z,12.10
2022-10-25T20:19:47.360Z,12.10
2022-10-25T20:24:50.518Z,12.10
2022-10-25T20:29:53.358Z,12.10
2022-10-25T20:34:56.166Z,11.90
2022-10-25T20:39:58.952Z,11.80
2022-10-25T20:45:04.687Z,11.60
2022-10-25T20:50:07.748Z,11.40
2022-10-25T20:55:10.342Z,11.30
2022-10-25T21:00:17.058Z,11.20
2022-10-25T21:05:22.432Z,11.20
2022-10-25T21:10:25.108Z,11.30
2022-10-25T21:15:27.833Z,11.30
2022-10-25T21:20:31.033Z,11.20
2022-10-25T21:25:34.148Z,11.10
2022-10-25T21:30:36.810Z,11.20
2022-10-25T21:35:39.401Z,11.10
2022-10-25T21:40:42.089Z,11.00
2022-10-25T21:45:44.717Z,11.10
2022-10-25T21:50:58.751Z,11.00
2022-10-25T21:56:05.902Z,10.90
2022-10-25T22:01:11.342Z,10.70
2022-10-25T22:06:15.876Z,10.70
2022-10-25T22:11:24.781Z,10.60
2022-10-25T22:16:28.316Z,10.70
2022-10-25T22:21:33.603Z,10.80
2022-10-25T22:26:38.393Z,10.90
2022-10-25T22:31:41.533Z,11.00
2022-10-25T22:36:44.147Z,11.30
2022-10-25T22:41:52.991Z,11.40
2022-10-25T22:46:55.931Z,11.40
2022-10-25T22:51:58.641Z,11.40
2022-10-25T22:57:01.493Z,11.30
2022-10-25T23:02:04.235Z,11.10
2022-10-25T23:07:06.824Z,11.00
2022-10-25T23:12:09.456Z,11.00
2022-10-25T23:17:12.253Z,10.90
2022-10-25T23:22:14.911Z,10.70
2022-10-25T23:27:17.512Z,10.80
2022-10-25T23:32:20.205Z,10.80
2022-10-25T23:37:22.952Z,10.80
2022-10-25T23:42:25.654Z,10.80
2022-10-25T23:47:28.260Z,10.90
2022-10-25T23:52:30.851Z,11.00
2022-10-25T23:57:33.532Z,11.10
